sensor_id;sensor_type;location;lat;lon;timestamp;P1;durP1;ratioP1;P2;durP2;ratioP2
79487;SDS011;68949;53.176;18.088;2023-04-01T00:01:46;13.00;;;7.60;;
79487;SDS011;68949;53.176;18.088;2023-04-01T00:04:13;14.10;;;8.30;;
79487;SDS011;68949;53.176;18.088;2023-04-01T00:06:39;14.20;;;8.60;;
79487;SDS011;68949;53.176;18.088;2023-04-01T00:09:07;14.50;;;9.00;;
79487;SDS011;68949;53.176;18.088;2023-04-01T00:11:33;16.00;;;8.90;;
79487;SDS011;68949;53.176;18.088;2023-04-01T00:14:00;14.90;;;8.90;;
79487;SDS011;68949;53.176;18.088;2023-04-01T00:16:27;15.60;;;9.20;;
79487;SDS011;68949;53.176;18.088;2023-04-01T00:18:53;15.00;;;9.50;;
79487;SDS011;68949;53.176;18.088;2023-04-01T00:21:21;16.40;;;9.40;;
79487;SDS011;68949;53.176;18.088;2023-04-01T00:23:49;17.60;;;10.10;;
79487;SDS011;68949;53.176;18.088;2023-04-01T00:26:17;19.90;;;11.30;;
79487;SDS011;68949;53.176;18.088;2023-04-01T00:28:47;17.50;;;10.20;;
79487;SDS011;68949;53.176;18.088;2023-04-01T00:31:14;16.50;;;9.10;;
79487;SDS011;68949;53.176;18.088;2023-04-01T00:33:42;16.50;;;9.60;;
79487;SDS011;68949;53.176;18.088;2023-04-01T00:36:11;17.40;;;9.30;;
79487;SDS011;68949;53.176;18.088;2023-04-01T00:38:40;17.30;;;9.90;;
79487;SDS011;68949;53.176;18.088;2023-04-01T00:41:09;20.10;;;10.70;;
79487;SDS011;68949;53.176;18.088;2023-04-01T00:43:43;19.30;;;10.70;;
79487;SDS011;68949;53.176;18.088;2023-04-01T00:46:11;17.70;;;9.50;;
79487;SDS011;68949;53.176;18.088;2023-04-01T00:48:42;19.70;;;9.50;;
79487;SDS011;68949;53.176;18.088;2023-04-01T00:51:27;18.10;;;9.90;;
79487;SDS011;68949;53.176;18.088;2023-04-01T00:53:58;21.10;;;11.20;;
79487;SDS011;68949;53.176;18.088;2023-04-01T00:56:32;19.30;;;10.60;;
79487;SDS011;68949;53.176;18.088;2023-04-01T00:59:06;21.40;;;11.50;;
79487;SDS011;68949;53.176;18.088;2023-04-01T01:01:37;19.10;;;11.30;;
79487;SDS011;68949;53.176;18.088;2023-04-01T01:04:04;19.80;;;11.10;;
79487;SDS011;68949;53.176;18.088;2023-04-01T01:06:42;17.50;;;9.80;;
79487;SDS011;68949;53.176;18.088;2023-04-01T01:12:15;18.80;;;9.20;;
79487;SDS011;68949;53.176;18.088;2023-04-01T01:34:55;14.40;;;8.10;;
79487;SDS011;68949;53.176;18.088;2023-04-01T01:37:43;16.10;;;9.20;;
79487;SDS011;68949;53.176;18.088;2023-04-01T01:40:13;12.80;;;7.10;;
79487;SDS011;68949;53.176;18.088;2023-04-01T01:42:49;11.20;;;6.50;;
79487;SDS011;68949;53.176;18.088;2023-04-01T01:45:21;11.60;;;6.70;;
79487;SDS011;68949;53.176;18.088;2023-04-01T01:47:51;10.70;;;6.30;;
79487;SDS011;68949;53.176;18.088;2023-04-01T01:50:19;11.00;;;6.10;;
79487;SDS011;68949;53.176;18.088;2023-04-01T01:52:48;11.30;;;6.50;;
79487;SDS011;68949;53.176;18.088;2023-04-01T01:55:26;11.40;;;6.80;;
79487;SDS011;68949;53.176;18.088;2023-04-01T01:58:02;11.70;;;6.50;;
79487;SDS011;68949;53.176;18.088;2023-04-01T02:00:35;10.00;;;6.30;;
79487;SDS011;68949;53.176;18.088;2023-04-01T02:03:03;10.10;;;6.70;;
79487;SDS011;68949;53.176;18.088;2023-04-01T02:05:31;9.90;;;6.10;;
79487;SDS011;68949;53.176;18.088;2023-04-01T02:08:22;11.90;;;5.80;;
79487;SDS011;68949;53.176;18.088;2023-04-01T02:11:05;10.90;;;6.30;;
79487;SDS011;68949;53.176;18.088;2023-04-01T02:16:33;10.70;;;6.50;;
79487;SDS011;68949;53.176;18.088;2023-04-01T02:19:05;9.10;;;5.70;;
79487;SDS011;68949;53.176;18.088;2023-04-01T02:21:36;9.00;;;4.80;;
79487;SDS011;68949;53.176;18.088;2023-04-01T02:24:09;8.80;;;5.50;;
79487;SDS011;68949;53.176;18.088;2023-04-01T02:26:40;8.60;;;5.20;;
79487;SDS011;68949;53.176;18.088;2023-04-01T02:29:09;10.30;;;5.60;;
79487;SDS011;68949;53.176;18.088;2023-04-01T02:31:38;9.90;;;5.30;;
79487;SDS011;68949;53.176;18.088;2023-04-01T02:34:06;9.80;;;5.30;;
79487;SDS011;68949;53.176;18.088;2023-04-01T02:36:35;8.40;;;4.70;;
79487;SDS011;68949;53.176;18.088;2023-04-01T02:39:03;8.20;;;4.80;;
79487;SDS011;68949;53.176;18.088;2023-04-01T02:41:31;7.50;;;3.90;;
79487;SDS011;68949;53.176;18.088;2023-04-01T02:43:58;9.00;;;4.40;;
79487;SDS011;68949;53.176;18.088;2023-04-01T02:46:25;9.70;;;4.50;;
79487;SDS011;68949;53.176;18.088;2023-04-01T02:48:52;10.10;;;5.10;;
79487;SDS011;68949;53.176;18.088;2023-04-01T02:51:20;10.70;;;5.00;;
79487;SDS011;68949;53.176;18.088;2023-04-01T02:53:46;10.70;;;4.80;;
79487;SDS011;68949;53.176;18.088;2023-04-01T02:56:13;10.10;;;5.30;;
79487;SDS011;68949;53.176;18.088;2023-04-01T02:58:40;10.70;;;4.60;;
79487;SDS011;68949;53.176;18.088;2023-04-01T03:01:06;11.00;;;4.60;;
79487;SDS011;68949;53.176;18.088;2023-04-01T03:03:34;11.90;;;6.30;;
79487;SDS011;68949;53.176;18.088;2023-04-01T03:06:10;10.30;;;5.30;;
79487;SDS011;68949;53.176;18.088;2023-04-01T03:08:38;10.90;;;5.40;;
79487;SDS011;68949;53.176;18.088;2023-04-01T03:11:06;10.50;;;4.90;;
79487;SDS011;68949;53.176;18.088;2023-04-01T03:13:34;8.90;;;4.70;;
79487;SDS011;68949;53.176;18.088;2023-04-01T03:16:01;10.50;;;4.60;;
79487;SDS011;68949;53.176;18.088;2023-04-01T03:18:28;9.30;;;4.30;;
79487;SDS011;68949;53.176;18.088;2023-04-01T03:20:55;12.00;;;4.90;;
79487;SDS011;68949;53.176;18.088;2023-04-01T03:23:21;9.00;;;4.60;;
79487;SDS011;68949;53.176;18.088;2023-04-01T03:25:50;9.80;;;4.40;;
79487;SDS011;68949;53.176;18.088;2023-04-01T03:28:17;7.70;;;3.80;;
79487;SDS011;68949;53.176;18.088;2023-04-01T03:30:44;8.50;;;3.70;;
79487;SDS011;68949;53.176;18.088;2023-04-01T03:33:11;7.80;;;3.30;;
79487;SDS011;68949;53.176;18.088;2023-04-01T03:35:38;9.10;;;3.20;;
79487;SDS011;68949;53.176;18.088;2023-04-01T03:38:05;9.50;;;4.30;;
79487;SDS011;68949;53.176;18.088;2023-04-01T03:40:32;10.30;;;4.90;;
79487;SDS011;68949;53.176;18.088;2023-04-01T03:43:00;11.10;;;4.50;;
79487;SDS011;68949;53.176;18.088;2023-04-01T03:45:26;9.00;;;3.60;;
79487;SDS011;68949;53.176;18.088;2023-04-01T03:47:53;7.60;;;3.50;;
79487;SDS011;68949;53.176;18.088;2023-04-01T03:50:20;8.10;;;3.30;;
79487;SDS011;68949;53.176;18.088;2023-04-01T03:52:47;7.20;;;3.00;;
79487;SDS011;68949;53.176;18.088;2023-04-01T03:55:14;8.70;;;3.60;;
79487;SDS011;68949;53.176;18.088;2023-04-01T03:57:42;8.80;;;4.10;;
79487;SDS011;68949;53.176;18.088;2023-04-01T04:00:14;9.70;;;4.10;;
79487;SDS011;68949;53.176;18.088;2023-04-01T04:02:43;9.30;;;4.00;;
79487;SDS011;68949;53.176;18.088;2023-04-01T04:05:10;9.40;;;4.40;;
79487;SDS011;68949;53.176;18.088;2023-04-01T04:07:37;10.30;;;4.30;;
79487;SDS011;68949;53.176;18.088;2023-04-01T04:10:06;8.40;;;3.50;;
79487;SDS011;68949;53.176;18.088;2023-04-01T04:12:33;11.00;;;4.70;;
79487;SDS011;68949;53.176;18.088;2023-04-01T04:15:01;13.50;;;5.10;;
79487;SDS011;68949;53.176;18.088;2023-04-01T04:17:27;13.20;;;5.50;;
79487;SDS011;68949;53.176;18.088;2023-04-01T04:19:54;9.70;;;4.80;;
79487;SDS011;68949;53.176;18.088;2023-04-01T04:22:21;13.00;;;5.30;;
79487;SDS011;68949;53.176;18.088;2023-04-01T04:24:48;13.00;;;4.90;;
79487;SDS011;68949;53.176;18.088;2023-04-01T04:27:14;10.60;;;4.90;;
79487;SDS011;68949;53.176;18.088;2023-04-01T04:29:48;15.00;;;6.60;;
79487;SDS011;68949;53.176;18.088;2023-04-01T04:32:15;17.50;;;7.10;;
79487;SDS011;68949;53.176;18.088;2023-04-01T04:34:41;14.30;;;6.40;;
79487;SDS011;68949;53.176;18.088;2023-04-01T04:37:08;14.40;;;6.40;;
79487;SDS011;68949;53.176;18.088;2023-04-01T04:39:36;12.70;;;5.30;;
79487;SDS011;68949;53.176;18.088;2023-04-01T04:42:02;13.00;;;6.10;;
79487;SDS011;68949;53.176;18.088;2023-04-01T04:44:29;14.50;;;6.40;;
79487;SDS011;68949;53.176;18.088;2023-04-01T04:46:57;16.00;;;7.20;;
79487;SDS011;68949;53.176;18.088;2023-04-01T04:49:23;17.30;;;6.60;;
79487;SDS011;68949;53.176;18.088;2023-04-01T04:51:51;16.10;;;7.40;;
79487;SDS011;68949;53.176;18.088;2023-04-01T04:54:19;15.00;;;6.90;;
79487;SDS011;68949;53.176;18.088;2023-04-01T04:56:56;13.40;;;6.00;;
79487;SDS011;68949;53.176;18.088;2023-04-01T04:59:25;9.70;;;3.80;;
79487;SDS011;68949;53.176;18.088;2023-04-01T05:02:12;12.40;;;5.80;;
79487;SDS011;68949;53.176;18.088;2023-04-01T05:04:38;14.90;;;6.50;;
79487;SDS011;68949;53.176;18.088;2023-04-01T05:07:07;20.60;;;7.40;;
79487;SDS011;68949;53.176;18.088;2023-04-01T05:09:34;13.60;;;6.30;;
79487;SDS011;68949;53.176;18.088;2023-04-01T05:12:00;14.00;;;6.70;;
79487;SDS011;68949;53.176;18.088;2023-04-01T05:14:30;14.20;;;5.80;;
79487;SDS011;68949;53.176;18.088;2023-04-01T05:17:09;14.20;;;5.90;;
79487;SDS011;68949;53.176;18.088;2023-04-01T05:19:39;13.80;;;6.90;;
79487;SDS011;68949;53.176;18.088;2023-04-01T05:22:06;18.30;;;8.00;;
79487;SDS011;68949;53.176;18.088;2023-04-01T05:24:33;18.50;;;7.90;;
79487;SDS011;68949;53.176;18.088;2023-04-01T05:27:00;19.70;;;8.10;;
79487;SDS011;68949;53.176;18.088;2023-04-01T05:29:27;15.20;;;7.10;;
79487;SDS011;68949;53.176;18.088;2023-04-01T05:31:59;17.10;;;6.90;;
79487;SDS011;68949;53.176;18.088;2023-04-01T05:34:26;17.20;;;8.00;;
79487;SDS011;68949;53.176;18.088;2023-04-01T05:36:53;18.50;;;8.20;;
79487;SDS011;68949;53.176;18.088;2023-04-01T05:39:19;21.30;;;8.90;;
79487;SDS011;68949;53.176;18.088;2023-04-01T05:41:47;21.60;;;9.80;;
79487;SDS011;68949;53.176;18.088;2023-04-01T05:44:13;17.20;;;8.40;;
79487;SDS011;68949;53.176;18.088;2023-04-01T05:46:41;15.10;;;7.60;;
79487;SDS011;68949;53.176;18.088;2023-04-01T05:49:22;17.60;;;7.50;;
79487;SDS011;68949;53.176;18.088;2023-04-01T05:51:49;14.20;;;6.50;;
79487;SDS011;68949;53.176;18.088;2023-04-01T05:54:19;10.50;;;5.70;;
79487;SDS011;68949;53.176;18.088;2023-04-01T05:56:46;12.10;;;5.70;;
79487;SDS011;68949;53.176;18.088;2023-04-01T05:59:13;13.70;;;7.30;;
79487;SDS011;68949;53.176;18.088;2023-04-01T06:01:42;13.70;;;7.00;;
79487;SDS011;68949;53.176;18.088;2023-04-01T06:04:17;14.90;;;7.20;;
79487;SDS011;68949;53.176;18.088;2023-04-01T06:06:45;12.90;;;7.10;;
79487;SDS011;68949;53.176;18.088;2023-04-01T06:09:16;12.70;;;6.50;;
79487;SDS011;68949;53.176;18.088;2023-04-01T06:20:55;11.00;;;6.20;;
79487;SDS011;68949;53.176;18.088;2023-04-01T06:32:57;9.20;;;4.40;;
79487;SDS011;68949;53.176;18.088;2023-04-01T06:39:13;9.80;;;5.30;;
79487;SDS011;68949;53.176;18.088;2023-04-01T06:42:19;11.00;;;5.30;;
79487;SDS011;68949;53.176;18.088;2023-04-01T06:45:17;8.50;;;4.60;;
79487;SDS011;68949;53.176;18.088;2023-04-01T06:52:00;11.00;;;4.50;;
79487;SDS011;68949;53.176;18.088;2023-04-01T06:58:26;9.50;;;5.10;;
79487;SDS011;68949;53.176;18.088;2023-04-01T07:01:03;10.50;;;5.40;;
79487;SDS011;68949;53.176;18.088;2023-04-01T07:03:35;9.60;;;5.10;;
79487;SDS011;68949;53.176;18.088;2023-04-01T07:06:16;11.60;;;5.80;;
79487;SDS011;68949;53.176;18.088;2023-04-01T07:08:54;14.40;;;7.00;;
79487;SDS011;68949;53.176;18.088;2023-04-01T07:11:31;12.00;;;6.30;;
79487;SDS011;68949;53.176;18.088;2023-04-01T07:14:36;11.80;;;5.60;;
79487;SDS011;68949;53.176;18.088;2023-04-01T07:17:33;12.10;;;6.00;;
79487;SDS011;68949;53.176;18.088;2023-04-01T07:20:16;12.80;;;6.50;;
79487;SDS011;68949;53.176;18.088;2023-04-01T07:22:52;14.00;;;7.30;;
79487;SDS011;68949;53.176;18.088;2023-04-01T07:25:55;14.70;;;7.00;;
79487;SDS011;68949;53.176;18.088;2023-04-01T07:28:57;12.60;;;6.70;;
79487;SDS011;68949;53.176;18.088;2023-04-01T07:31:49;12.00;;;6.50;;
79487;SDS011;68949;53.176;18.088;2023-04-01T07:37:18;12.00;;;6.10;;
79487;SDS011;68949;53.176;18.088;2023-04-01T07:40:11;10.20;;;5.70;;
79487;SDS011;68949;53.176;18.088;2023-04-01T07:43:05;11.70;;;5.60;;
79487;SDS011;68949;53.176;18.088;2023-04-01T07:46:39;15.70;;;8.80;;
79487;SDS011;68949;53.176;18.088;2023-04-01T07:49:46;11.60;;;6.80;;
79487;SDS011;68949;53.176;18.088;2023-04-01T07:55:14;11.20;;;5.90;;
79487;SDS011;68949;53.176;18.088;2023-04-01T08:00:33;9.70;;;4.40;;
79487;SDS011;68949;53.176;18.088;2023-04-01T08:06:28;9.50;;;4.50;;
79487;SDS011;68949;53.176;18.088;2023-04-01T08:09:50;12.50;;;6.20;;
79487;SDS011;68949;53.176;18.088;2023-04-01T08:12:49;12.40;;;6.00;;
79487;SDS011;68949;53.176;18.088;2023-04-01T08:22:25;10.80;;;5.40;;
79487;SDS011;68949;53.176;18.088;2023-04-01T08:25:01;10.90;;;4.60;;
79487;SDS011;68949;53.176;18.088;2023-04-01T08:27:37;9.90;;;4.80;;
79487;SDS011;68949;53.176;18.088;2023-04-01T08:33:05;11.90;;;5.80;;
79487;SDS011;68949;53.176;18.088;2023-04-01T08:35:51;10.30;;;4.90;;
79487;SDS011;68949;53.176;18.088;2023-04-01T08:38:42;9.30;;;5.20;;
79487;SDS011;68949;53.176;18.088;2023-04-01T08:45:24;9.50;;;4.40;;
79487;SDS011;68949;53.176;18.088;2023-04-01T08:51:11;7.10;;;3.80;;
79487;SDS011;68949;53.176;18.088;2023-04-01T08:54:00;9.60;;;5.10;;
79487;SDS011;68949;53.176;18.088;2023-04-01T08:56:40;8.20;;;4.20;;
79487;SDS011;68949;53.176;18.088;2023-04-01T09:12:22;5.90;;;2.50;;
79487;SDS011;68949;53.176;18.088;2023-04-01T09:27:09;5.80;;;2.40;;
79487;SDS011;68949;53.176;18.088;2023-04-01T09:29:49;5.70;;;2.20;;
79487;SDS011;68949;53.176;18.088;2023-04-01T09:41:29;5.40;;;2.20;;
79487;SDS011;68949;53.176;18.088;2023-04-01T09:47:01;5.80;;;2.50;;
79487;SDS011;68949;53.176;18.088;2023-04-01T09:53:36;4.80;;;2.20;;
79487;SDS011;68949;53.176;18.088;2023-04-01T09:59:40;4.60;;;2.00;;
79487;SDS011;68949;53.176;18.088;2023-04-01T10:05:49;5.60;;;2.50;;
79487;SDS011;68949;53.176;18.088;2023-04-01T10:08:40;5.40;;;2.10;;
79487;SDS011;68949;53.176;18.088;2023-04-01T10:20:13;6.40;;;2.90;;
79487;SDS011;68949;53.176;18.088;2023-04-01T10:23:02;5.70;;;2.40;;
79487;SDS011;68949;53.176;18.088;2023-04-01T10:25:50;6.40;;;2.30;;
79487;SDS011;68949;53.176;18.088;2023-04-01T10:34:48;5.20;;;2.20;;
79487;SDS011;68949;53.176;18.088;2023-04-01T10:48:12;4.70;;;1.50;;
79487;SDS011;68949;53.176;18.088;2023-04-01T10:51:14;4.50;;;1.60;;
79487;SDS011;68949;53.176;18.088;2023-04-01T11:01:05;5.60;;;2.30;;
79487;SDS011;68949;53.176;18.088;2023-04-01T11:13:59;4.40;;;1.70;;
79487;SDS011;68949;53.176;18.088;2023-04-01T11:20:04;8.40;;;2.90;;
79487;SDS011;68949;53.176;18.088;2023-04-01T11:35:21;5.70;;;1.90;;
79487;SDS011;68949;53.176;18.088;2023-04-01T11:38:20;5.20;;;2.10;;
79487;SDS011;68949;53.176;18.088;2023-04-01T11:41:10;4.10;;;1.60;;
79487;SDS011;68949;53.176;18.088;2023-04-01T11:44:18;5.20;;;1.60;;
79487;SDS011;68949;53.176;18.088;2023-04-01T12:01:49;4.70;;;2.10;;
79487;SDS011;68949;53.176;18.088;2023-04-01T12:13:55;3.90;;;1.20;;
79487;SDS011;68949;53.176;18.088;2023-04-01T12:16:58;4.10;;;1.50;;
79487;SDS011;68949;53.176;18.088;2023-04-01T12:19:51;4.90;;;2.10;;
79487;SDS011;68949;53.176;18.088;2023-04-01T12:28:13;4.00;;;1.60;;
79487;SDS011;68949;53.176;18.088;2023-04-01T12:31:01;4.00;;;1.60;;
79487;SDS011;68949;53.176;18.088;2023-04-01T12:33:45;3.60;;;1.20;;
79487;SDS011;68949;53.176;18.088;2023-04-01T12:52:11;5.00;;;1.80;;
79487;SDS011;68949;53.176;18.088;2023-04-01T12:58:27;3.60;;;1.10;;
79487;SDS011;68949;53.176;18.088;2023-04-01T13:01:23;4.20;;;1.20;;
79487;SDS011;68949;53.176;18.088;2023-04-01T13:10:08;4.40;;;1.70;;
79487;SDS011;68949;53.176;18.088;2023-04-01T13:16:08;4.00;;;1.60;;
79487;SDS011;68949;53.176;18.088;2023-04-01T13:19:01;4.00;;;1.20;;
79487;SDS011;68949;53.176;18.088;2023-04-01T13:21:54;5.50;;;1.90;;
79487;SDS011;68949;53.176;18.088;2023-04-01T13:24:53;4.90;;;1.80;;
79487;SDS011;68949;53.176;18.088;2023-04-01T13:27:41;4.10;;;1.40;;
79487;SDS011;68949;53.176;18.088;2023-04-01T13:41:57;4.60;;;1.40;;
79487;SDS011;68949;53.176;18.088;2023-04-01T13:45:11;5.40;;;2.40;;
79487;SDS011;68949;53.176;18.088;2023-04-01T13:51:25;4.60;;;2.10;;
79487;SDS011;68949;53.176;18.088;2023-04-01T13:54:23;7.20;;;3.00;;
79487;SDS011;68949;53.176;18.088;2023-04-01T13:57:23;4.10;;;1.40;;
79487;SDS011;68949;53.176;18.088;2023-04-01T14:00:16;4.40;;;1.20;;
79487;SDS011;68949;53.176;18.088;2023-04-01T14:03:28;3.90;;;1.50;;
79487;SDS011;68949;53.176;18.088;2023-04-01T14:09:34;5.00;;;1.80;;
79487;SDS011;68949;53.176;18.088;2023-04-01T14:12:30;4.50;;;1.40;;
79487;SDS011;68949;53.176;18.088;2023-04-01T14:15:27;3.80;;;1.60;;
79487;SDS011;68949;53.176;18.088;2023-04-01T14:33:22;5.60;;;2.30;;
79487;SDS011;68949;53.176;18.088;2023-04-01T14:48:05;6.50;;;2.60;;
79487;SDS011;68949;53.176;18.088;2023-04-01T14:50:53;5.70;;;2.20;;
79487;SDS011;68949;53.176;18.088;2023-04-01T14:55:52;5.70;;;2.30;;
79487;SDS011;68949;53.176;18.088;2023-04-01T14:58:46;4.10;;;1.50;;
79487;SDS011;68949;53.176;18.088;2023-04-01T15:10:06;6.90;;;2.70;;
79487;SDS011;68949;53.176;18.088;2023-04-01T15:15:29;10.30;;;4.10;;
79487;SDS011;68949;53.176;18.088;2023-04-01T15:18:03;6.30;;;2.80;;
79487;SDS011;68949;53.176;18.088;2023-04-01T15:20:53;3.80;;;1.80;;
79487;SDS011;68949;53.176;18.088;2023-04-01T15:23:44;5.70;;;1.90;;
79487;SDS011;68949;53.176;18.088;2023-04-01T15:29:43;4.20;;;1.90;;
79487;SDS011;68949;53.176;18.088;2023-04-01T15:35:39;3.90;;;1.40;;
79487;SDS011;68949;53.176;18.088;2023-04-01T15:43:41;5.60;;;2.10;;
79487;SDS011;68949;53.176;18.088;2023-04-01T15:46:26;7.10;;;3.00;;
79487;SDS011;68949;53.176;18.088;2023-04-01T15:52:22;5.60;;;2.10;;
79487;SDS011;68949;53.176;18.088;2023-04-01T15:54:57;5.60;;;1.90;;
79487;SDS011;68949;53.176;18.088;2023-04-01T16:01:13;5.30;;;2.20;;
79487;SDS011;68949;53.176;18.088;2023-04-01T16:07:30;4.30;;;1.10;;
79487;SDS011;68949;53.176;18.088;2023-04-01T16:10:23;4.50;;;1.90;;
79487;SDS011;68949;53.176;18.088;2023-04-01T16:13:23;5.30;;;2.20;;
79487;SDS011;68949;53.176;18.088;2023-04-01T16:22:17;5.90;;;2.10;;
79487;SDS011;68949;53.176;18.088;2023-04-01T16:25:24;4.90;;;1.60;;
79487;SDS011;68949;53.176;18.088;2023-04-01T16:31:38;6.50;;;2.30;;
79487;SDS011;68949;53.176;18.088;2023-04-01T16:34:16;5.70;;;1.70;;
79487;SDS011;68949;53.176;18.088;2023-04-01T16:36:51;4.20;;;1.80;;
79487;SDS011;68949;53.176;18.088;2023-04-01T16:47:59;5.80;;;2.50;;
79487;SDS011;68949;53.176;18.088;2023-04-01T16:50:52;5.80;;;1.80;;
79487;SDS011;68949;53.176;18.088;2023-04-01T16:56:55;4.70;;;1.70;;
79487;SDS011;68949;53.176;18.088;2023-04-01T16:59:33;6.10;;;2.40;;
79487;SDS011;68949;53.176;18.088;2023-04-01T17:02:10;5.70;;;1.90;;
79487;SDS011;68949;53.176;18.088;2023-04-01T17:04:45;5.20;;;1.70;;
79487;SDS011;68949;53.176;18.088;2023-04-01T17:10:28;4.10;;;1.70;;
79487;SDS011;68949;53.176;18.088;2023-04-01T17:16:36;4.70;;;1.70;;
79487;SDS011;68949;53.176;18.088;2023-04-01T17:20:10;6.00;;;1.80;;
79487;SDS011;68949;53.176;18.088;2023-04-01T17:23:30;4.30;;;1.50;;
79487;SDS011;68949;53.176;18.088;2023-04-01T17:26:26;4.50;;;1.40;;
79487;SDS011;68949;53.176;18.088;2023-04-01T17:40:53;5.40;;;2.20;;
79487;SDS011;68949;53.176;18.088;2023-04-01T17:47:00;7.00;;;2.40;;
79487;SDS011;68949;53.176;18.088;2023-04-01T17:50:07;4.80;;;1.70;;
79487;SDS011;68949;53.176;18.088;2023-04-01T17:55:49;5.10;;;1.70;;
79487;SDS011;68949;53.176;18.088;2023-04-01T17:58:29;5.20;;;2.00;;
79487;SDS011;68949;53.176;18.088;2023-04-01T18:01:11;5.50;;;1.80;;
79487;SDS011;68949;53.176;18.088;2023-04-01T18:07:07;6.40;;;2.70;;
79487;SDS011;68949;53.176;18.088;2023-04-01T18:16:24;8.60;;;3.70;;
79487;SDS011;68949;53.176;18.088;2023-04-01T18:24:06;5.90;;;2.30;;
79487;SDS011;68949;53.176;18.088;2023-04-01T18:26:39;6.10;;;2.60;;
79487;SDS011;68949;53.176;18.088;2023-04-01T18:29:28;5.60;;;2.50;;
79487;SDS011;68949;53.176;18.088;2023-04-01T18:32:35;6.60;;;2.60;;
79487;SDS011;68949;53.176;18.088;2023-04-01T18:40:48;6.60;;;3.10;;
79487;SDS011;68949;53.176;18.088;2023-04-01T18:43:37;6.40;;;3.30;;
79487;SDS011;68949;53.176;18.088;2023-04-01T18:46:25;5.80;;;2.40;;
79487;SDS011;68949;53.176;18.088;2023-04-01T18:49:08;6.80;;;2.50;;
79487;SDS011;68949;53.176;18.088;2023-04-01T18:51:57;7.90;;;2.50;;
79487;SDS011;68949;53.176;18.088;2023-04-01T18:54:33;7.40;;;3.30;;
79487;SDS011;68949;53.176;18.088;2023-04-01T18:57:18;9.70;;;3.80;;
79487;SDS011;68949;53.176;18.088;2023-04-01T19:00:03;5.90;;;2.00;;
79487;SDS011;68949;53.176;18.088;2023-04-01T19:02:47;7.90;;;3.30;;
79487;SDS011;68949;53.176;18.088;2023-04-01T19:05:24;8.30;;;4.40;;
79487;SDS011;68949;53.176;18.088;2023-04-01T19:11:52;8.20;;;3.10;;
79487;SDS011;68949;53.176;18.088;2023-04-01T19:17:58;8.40;;;3.30;;
79487;SDS011;68949;53.176;18.088;2023-04-01T19:20:41;6.60;;;3.10;;
79487;SDS011;68949;53.176;18.088;2023-04-01T19:24:04;7.70;;;3.40;;
79487;SDS011;68949;53.176;18.088;2023-04-01T19:26:56;7.90;;;3.50;;
79487;SDS011;68949;53.176;18.088;2023-04-01T19:29:56;8.60;;;3.70;;
79487;SDS011;68949;53.176;18.088;2023-04-01T19:38:39;7.70;;;3.00;;
79487;SDS011;68949;53.176;18.088;2023-04-01T19:41:30;10.10;;;3.40;;
79487;SDS011;68949;53.176;18.088;2023-04-01T19:44:36;7.90;;;3.50;;
79487;SDS011;68949;53.176;18.088;2023-04-01T19:47:32;7.50;;;3.10;;
79487;SDS011;68949;53.176;18.088;2023-04-01T19:50:10;6.40;;;2.90;;
79487;SDS011;68949;53.176;18.088;2023-04-01T19:52:53;8.00;;;4.10;;
79487;SDS011;68949;53.176;18.088;2023-04-01T19:58:14;6.80;;;3.60;;
79487;SDS011;68949;53.176;18.088;2023-04-01T20:00:51;8.70;;;3.70;;
79487;SDS011;68949;53.176;18.088;2023-04-01T20:03:38;7.80;;;3.60;;
79487;SDS011;68949;53.176;18.088;2023-04-01T20:06:35;9.00;;;3.70;;
79487;SDS011;68949;53.176;18.088;2023-04-01T20:15:22;7.10;;;3.20;;
79487;SDS011;68949;53.176;18.088;2023-04-01T20:17:54;7.80;;;2.80;;
79487;SDS011;68949;53.176;18.088;2023-04-01T20:20:26;10.20;;;4.70;;
79487;SDS011;68949;53.176;18.088;2023-04-01T20:25:45;6.70;;;2.80;;
79487;SDS011;68949;53.176;18.088;2023-04-01T20:30:55;6.90;;;3.50;;
79487;SDS011;68949;53.176;18.088;2023-04-01T20:33:37;8.80;;;3.10;;
79487;SDS011;68949;53.176;18.088;2023-04-01T20:39:20;8.10;;;2.60;;
79487;SDS011;68949;53.176;18.088;2023-04-01T20:47:57;8.10;;;3.80;;
79487;SDS011;68949;53.176;18.088;2023-04-01T20:50:48;8.10;;;3.90;;
79487;SDS011;68949;53.176;18.088;2023-04-01T20:53:28;6.50;;;3.00;;
79487;SDS011;68949;53.176;18.088;2023-04-01T20:59:07;7.60;;;3.20;;
79487;SDS011;68949;53.176;18.088;2023-04-01T21:05:23;8.00;;;3.10;;
79487;SDS011;68949;53.176;18.088;2023-04-01T21:11:05;10.10;;;3.70;;
79487;SDS011;68949;53.176;18.088;2023-04-01T21:14:28;8.10;;;3.30;;
79487;SDS011;68949;53.176;18.088;2023-04-01T21:25:26;7.60;;;3.30;;
79487;SDS011;68949;53.176;18.088;2023-04-01T21:28:11;8.60;;;3.30;;
79487;SDS011;68949;53.176;18.088;2023-04-01T21:36:35;11.50;;;5.00;;
79487;SDS011;68949;53.176;18.088;2023-04-01T21:45:19;10.00;;;4.20;;
79487;SDS011;68949;53.176;18.088;2023-04-01T21:51:19;8.50;;;3.70;;
79487;SDS011;68949;53.176;18.088;2023-04-01T21:54:18;11.40;;;4.10;;
79487;SDS011;68949;53.176;18.088;2023-04-01T21:57:17;7.00;;;2.70;;
79487;SDS011;68949;53.176;18.088;2023-04-01T22:06:10;8.40;;;4.50;;
79487;SDS011;68949;53.176;18.088;2023-04-01T22:20:59;9.20;;;3.70;;
79487;SDS011;68949;53.176;18.088;2023-04-01T22:29:00;10.10;;;5.10;;
79487;SDS011;68949;53.176;18.088;2023-04-01T22:31:58;10.80;;;4.10;;
79487;SDS011;68949;53.176;18.088;2023-04-01T22:34:56;10.30;;;4.00;;
79487;SDS011;68949;53.176;18.088;2023-04-01T22:40:47;6.00;;;2.50;;
79487;SDS011;68949;53.176;18.088;2023-04-01T22:43:36;6.20;;;2.40;;
79487;SDS011;68949;53.176;18.088;2023-04-01T22:49:15;10.60;;;3.60;;
79487;SDS011;68949;53.176;18.088;2023-04-01T22:52:15;6.30;;;2.70;;
79487;SDS011;68949;53.176;18.088;2023-04-01T22:55:17;6.30;;;2.80;;
79487;SDS011;68949;53.176;18.088;2023-04-01T22:58:08;6.40;;;2.70;;
79487;SDS011;68949;53.176;18.088;2023-04-01T23:00:43;5.80;;;2.60;;
79487;SDS011;68949;53.176;18.088;2023-04-01T23:03:29;5.80;;;2.20;;
79487;SDS011;68949;53.176;18.088;2023-04-01T23:06:00;4.70;;;1.40;;
79487;SDS011;68949;53.176;18.088;2023-04-01T23:11:35;4.70;;;1.80;;
79487;SDS011;68949;53.176;18.088;2023-04-01T23:26:21;6.20;;;2.50;;
79487;SDS011;68949;53.176;18.088;2023-04-01T23:28:57;5.50;;;2.70;;
79487;SDS011;68949;53.176;18.088;2023-04-01T23:37:00;6.40;;;2.00;;
79487;SDS011;68949;53.176;18.088;2023-04-01T23:39:35;6.50;;;1.90;;
79487;SDS011;68949;53.176;18.088;2023-04-01T23:44:47;6.70;;;3.10;;
79487;SDS011;68949;53.176;18.088;2023-04-01T23:47:18;7.90;;;3.30;;
79487;SDS011;68949;53.176;18.088;2023-04-01T23:49:52;6.90;;;3.00;;
79487;SDS011;68949;53.176;18.088;2023-04-01T23:52:27;5.80;;;1.50;;
79487;SDS011;68949;53.176;18.088;2023-04-01T23:57:41;6.90;;;2.40;;
